Rechercher aéroport 
image banner adimage banner ad
image banner ad

VIGG - Kangra

Situé à Dharamshala, India

ICAO - VIGG, IATA - DHM

Données fournies par Airmate  

Information générale

Coordonnées: N32°9'53" E76°15'44"
Élévation : 2525 feet MSL.
 
Évalué:
Voir évaluations: [VIEW]


Voir autres Aéroports à Himachal Pradesh

Données opérationnelles

Accessible au public
Heure actuelle UTC:
Heure actuelle locale:
Météo
METAR: VIGG 210200Z 13001KT 6000 NSC 13/12 Q1019
TAF: TAF VIGG 202300Z 2100/2109 00000KT 2500 BR FEW100 BECMG 2105/2106 14005KT 5000 HZ SCT035
Voir NOTAMs / SUP AIP / TFR affectant cet aéroport [VIEW]
Fréquences de communication: [VIEW]

Pistes:

Identifiant RWYQFULongueur (ft)Largeur (ft)SurfaceLDA (ft)
15148°451498ASP
33328°451498

Coordonnées de l'aéroport

Adresse: Dharamshala India

Vue satellite de VIGG